Time;durP1;ratioP1;P1;durP2;ratioP2;P2;SDS_P1;SDS_P2;PMS_P1;PMS_P2;Temp;Humidity;BMP_temperature;BMP_pressure;BME280_temperature;BME280_humidity;BME280_pressure;Samples;Min_cycle;Max_cycle;Signal;HPM_P1;HPM_P2
2024/02/27 00:01:36;;;;;;;4.38;1.55;;;5.40;99.90;;;;;;5009428;28;20032;-79
2024/02/27 00:04:01;;;;;;;1.48;0.80;;;5.50;99.90;;;;;;5009278;28;20069;-79
2024/02/27 00:06:30;;;;;;;1.88;0.73;;;5.50;99.90;;;;;;5011950;28;20410;-79
2024/02/27 00:08:59;;;;;;;2.75;1.00;;;5.40;99.90;;;;;;5010242;28;20030;-79
2024/02/27 00:11:25;;;;;;;2.53;1.08;;;5.40;99.90;;;;;;5010114;28;20709;-79
2024/02/27 00:13:50;;;;;;;2.42;1.00;;;5.40;99.90;;;;;;5011591;28;20036;-80
2024/02/27 00:16:18;;;;;;;2.42;1.23;;;5.50;99.90;;;;;;5010226;28;20515;-79
2024/02/27 00:18:44;;;;;;;3.05;1.17;;;5.40;99.90;;;;;;5015150;28;20021;-79
2024/02/27 00:21:09;;;;;;;2.00;1.10;;;5.50;99.90;;;;;;5015396;28;21409;-80
2024/02/27 00:23:36;;;;;;;2.00;1.05;;;5.40;99.90;;;;;;5015326;28;21530;-80
2024/02/27 00:26:01;;;;;;;1.60;0.90;;;5.40;99.90;;;;;;5012797;28;20132;-79
2024/02/27 00:28:27;;;;;;;1.98;0.60;;;5.50;99.90;;;;;;5014948;28;20495;-80
2024/02/27 00:30:53;;;;;;;0.93;0.32;;;5.50;99.90;;;;;;5011756;28;20037;-79
2024/02/27 00:33:18;;;;;;;0.45;0.17;;;5.50;99.90;;;;;;5012329;28;20053;-79
2024/02/27 00:35:44;;;;;;;0.63;0.20;;;5.60;99.90;;;;;;5014073;28;20059;-79
2024/02/27 00:38:13;;;;;;;2.15;0.40;;;5.80;99.90;;;;;;5012799;28;20029;-79
2024/02/27 00:40:39;;;;;;;1.15;0.50;;;5.60;99.90;;;;;;5013976;28;20502;-79
2024/02/27 00:43:04;;;;;;;0.63;0.20;;;5.70;99.90;;;;;;5014646;28;20112;-79
2024/02/27 00:45:31;;;;;;;0.55;0.30;;;5.60;99.90;;;;;;5013387;28;20037;-79
2024/02/27 00:47:59;;;;;;;0.40;0.22;;;5.60;99.90;;;;;;5013822;28;20399;-79
2024/02/27 00:50:28;;;;;;;1.73;0.60;;;5.60;99.90;;;;;;5013526;28;20430;-79
2024/02/27 00:52:54;;;;;;;0.65;0.38;;;5.50;99.90;;;;;;5013254;28;20476;-79
2024/02/27 00:55:19;;;;;;;0.88;0.30;;;5.40;99.90;;;;;;5013139;28;20613;-79
2024/02/27 00:57:45;;;;;;;1.25;0.52;;;5.40;99.90;;;;;;5012005;28;20037;-79
2024/02/27 01:00:14;;;;;;;1.33;0.50;;;5.40;99.90;;;;;;5012293;28;20036;-79
2024/02/27 01:02:41;;;;;;;1.92;0.65;;;5.40;99.90;;;;;;5012230;28;20066;-79
2024/02/27 01:05:08;;;;;;;0.85;0.52;;;5.20;99.90;;;;;;5013378;28;20031;-77
2024/02/27 01:07:34;;;;;;;0.88;0.35;;;5.20;99.90;;;;;;5012839;28;20064;-79
2024/02/27 01:10:00;;;;;;;0.38;0.30;;;5.40;99.90;;;;;;5012843;28;20049;-80
2024/02/27 01:12:26;;;;;;;0.73;0.43;;;5.40;99.90;;;;;;5013172;28;21463;-80
2024/02/27 01:14:52;;;;;;;1.30;0.50;;;5.40;99.90;;;;;;5013990;28;20041;-77
2024/02/27 01:17:18;;;;;;;0.60;0.40;;;5.40;99.90;;;;;;5013990;28;20109;-77
2024/02/27 01:19:44;;;;;;;0.60;0.32;;;5.40;99.90;;;;;;5014249;28;20040;-77
2024/02/27 01:22:10;;;;;;;0.28;0.28;;;5.40;99.90;;;;;;5013338;28;20025;-79
2024/02/27 01:24:37;;;;;;;1.17;0.50;;;5.40;99.90;;;;;;5013847;28;20136;-80
2024/02/27 01:27:04;;;;;;;1.65;0.50;;;5.40;99.90;;;;;;5013611;28;20503;-79
2024/02/27 01:29:30;;;;;;;1.45;0.55;;;5.50;99.90;;;;;;5012894;28;20029;-77
2024/02/27 01:31:55;;;;;;;0.70;0.35;;;5.50;99.90;;;;;;5012733;28;20054;-79
2024/02/27 01:34:21;;;;;;;0.98;0.30;;;5.40;99.90;;;;;;5014388;28;20025;-79
2024/02/27 01:36:47;;;;;;;1.10;0.45;;;5.30;99.90;;;;;;5012944;28;20100;-79
2024/02/27 01:39:13;;;;;;;1.00;0.60;;;5.20;99.90;;;;;;5014669;28;20029;-79
2024/02/27 01:41:39;;;;;;;0.70;0.32;;;5.30;99.90;;;;;;5014060;28;20033;-79
2024/02/27 01:44:07;;;;;;;0.82;0.30;;;5.20;99.90;;;;;;5012976;28;20037;-79
2024/02/27 01:46:32;;;;;;;0.32;0.30;;;5.10;99.90;;;;;;5014145;28;20033;-79
2024/02/27 01:48:59;;;;;;;0.82;0.50;;;5.10;99.90;;;;;;5012672;28;20036;-79
2024/02/27 01:51:25;;;;;;;1.15;0.50;;;5.20;99.90;;;;;;5013360;28;20475;-79
2024/02/27 01:53:54;;;;;;;2.65;0.75;;;5.00;99.90;;;;;;5014228;28;21275;-78
2024/02/27 01:56:21;;;;;;;0.60;0.50;;;5.00;99.90;;;;;;5013634;28;20116;-79
2024/02/27 01:58:47;;;;;;;1.50;0.60;;;5.00;99.90;;;;;;5012892;28;20029;-78
2024/02/27 02:01:14;;;;;;;0.82;0.50;;;5.00;99.90;;;;;;5010922;28;20079;-79
2024/02/27 02:03:40;;;;;;;3.25;1.00;;;4.90;99.90;;;;;;5011419;28;20120;-79
2024/02/27 02:06:09;;;;;;;1.95;0.60;;;5.00;99.90;;;;;;5012692;28;20029;-79
2024/02/27 02:08:36;;;;;;;0.63;0.40;;;4.80;99.90;;;;;;5013215;28;20099;-77
2024/02/27 02:11:03;;;;;;;0.63;0.40;;;4.80;99.90;;;;;;5011753;28;20029;-79
2024/02/27 02:13:29;;;;;;;1.05;0.30;;;4.90;99.90;;;;;;5009659;28;20073;-79
2024/02/27 02:15:55;;;;;;;1.00;0.20;;;4.90;99.90;;;;;;5016986;28;20125;-79
2024/02/27 02:18:20;;;;;;;1.23;0.20;;;4.80;99.90;;;;;;5017554;28;20108;-79
2024/02/27 02:20:46;;;;;;;0.95;0.30;;;4.70;99.90;;;;;;5018918;28;20472;-79
2024/02/27 02:23:12;;;;;;;1.08;0.40;;;4.70;99.90;;;;;;5015108;28;20037;-79
2024/02/27 02:25:38;;;;;;;0.65;0.40;;;4.80;99.90;;;;;;5017725;28;20045;-79
2024/02/27 02:28:04;;;;;;;1.08;0.50;;;4.80;99.90;;;;;;5016808;28;20038;-79
2024/02/27 02:30:30;;;;;;;1.23;0.45;;;4.70;99.90;;;;;;5016514;28;20111;-79
2024/02/27 02:32:56;;;;;;;0.30;0.20;;;4.70;99.90;;;;;;5017029;28;20124;-79
2024/02/27 02:35:22;;;;;;;0.70;0.38;;;4.70;99.90;;;;;;5015476;28;20117;-79
2024/02/27 02:37:49;;;;;;;0.57;0.35;;;4.60;99.90;;;;;;5015533;28;20044;-79
2024/02/27 02:40:21;;;;;;;0.50;0.20;;;4.70;99.90;;;;;;5017829;28;20492;-79
2024/02/27 02:42:47;;;;;;;0.65;0.43;;;4.60;99.90;;;;;;5015949;28;20037;-79
2024/02/27 02:45:14;;;;;;;0.93;0.40;;;4.70;99.90;;;;;;5015339;28;20041;-79
2024/02/27 02:47:40;;;;;;;0.95;0.45;;;4.80;99.90;;;;;;5018211;28;20095;-79
2024/02/27 02:50:07;;;;;;;0.65;0.40;;;4.70;99.90;;;;;;5017101;28;20038;-79
2024/02/27 02:52:33;;;;;;;1.13;0.43;;;4.80;99.90;;;;;;5017247;28;20395;-79
2024/02/27 02:55:05;;;;;;;1.80;0.50;;;4.80;99.90;;;;;;5017771;28;20494;-79
2024/02/27 02:57:31;;;;;;;0.57;0.40;;;4.80;99.90;;;;;;5014716;28;20083;-78
2024/02/27 02:59:57;;;;;;;0.77;0.43;;;4.80;99.90;;;;;;5010680;28;20022;-79
2024/02/27 03:02:22;;;;;;;1.33;0.50;;;4.70;99.90;;;;;;5012283;28;20480;-79
2024/02/27 03:04:48;;;;;;;1.58;0.93;;;4.80;99.90;;;;;;5009597;28;20491;-79
2024/02/27 03:07:14;;;;;;;3.33;1.55;;;4.80;99.90;;;;;;5011075;28;20029;-79
2024/02/27 03:09:39;;;;;;;2.83;1.00;;;4.80;99.90;;;;;;5011704;28;20060;-79
2024/02/27 03:12:05;;;;;;;5.72;2.40;;;4.90;99.90;;;;;;5008517;28;20693;-79
2024/02/27 03:14:31;;;;;;;4.18;1.60;;;4.90;99.90;;;;;;5008049;28;20114;-78
2024/02/27 03:16:57;;;;;;;4.07;1.30;;;4.80;99.90;;;;;;5012326;28;20034;-79
2024/02/27 03:19:23;;;;;;;2.03;0.85;;;4.70;99.90;;;;;;5011545;28;20424;-79
2024/02/27 03:21:48;;;;;;;0.75;0.35;;;4.80;99.90;;;;;;5012808;28;20103;-78
2024/02/27 03:24:14;;;;;;;0.65;0.40;;;4.70;99.90;;;;;;5011129;28;20637;-79
2024/02/27 03:26:42;;;;;;;1.48;0.52;;;4.80;99.90;;;;;;5012461;28;20446;-79
2024/02/27 03:29:08;;;;;;;3.38;0.30;;;4.70;99.90;;;;;;5011207;28;20127;-79
2024/02/27 03:31:33;;;;;;;0.55;0.10;;;4.80;99.90;;;;;;5011180;28;20424;-79
2024/02/27 03:33:59;;;;;;;0.75;0.10;;;4.80;99.90;;;;;;5008742;28;20029;-79
2024/02/27 03:36:25;;;;;;;0.55;0.22;;;4.80;99.90;;;;;;5010112;28;20037;-79
2024/02/27 03:38:50;;;;;;;0.20;0.00;;;4.80;99.90;;;;;;5011172;28;20037;-79
2024/02/27 03:41:18;;;;;;;0.30;0.10;;;5.00;99.90;;;;;;5012281;28;20076;-79
2024/02/27 03:43:44;;;;;;;0.28;0.10;;;5.10;99.90;;;;;;5008802;28;20710;-79
2024/02/27 03:46:10;;;;;;;0.17;0.10;;;5.00;99.90;;;;;;5008529;28;21332;-79
2024/02/27 03:48:36;;;;;;;1.42;0.20;;;5.00;99.90;;;;;;5011680;28;20022;-79
2024/02/27 03:51:02;;;;;;;0.47;0.30;;;4.90;99.90;;;;;;5011420;28;20112;-79
2024/02/27 03:53:30;;;;;;;0.30;0.20;;;4.90;99.90;;;;;;5009855;28;20041;-79
2024/02/27 03:55:57;;;;;;;0.32;0.10;;;5.00;99.90;;;;;;5010407;28;20033;-79
2024/02/27 03:58:22;;;;;;;0.63;0.20;;;5.00;99.90;;;;;;5009021;28;20041;-79
2024/02/27 04:00:48;;;;;;;0.98;0.20;;;5.10;99.90;;;;;;5008392;28;20090;-79
2024/02/27 04:03:14;;;;;;;1.25;0.20;;;4.90;99.90;;;;;;5011230;28;20530;-79
2024/02/27 04:05:43;;;;;;;1.58;0.30;;;4.90;99.90;;;;;;5011358;28;20120;-79
2024/02/27 04:08:08;;;;;;;1.05;0.38;;;4.90;99.90;;;;;;5010293;28;20041;-78
2024/02/27 04:10:35;;;;;;;0.55;0.40;;;4.90;99.90;;;;;;5009896;28;20222;-79
2024/02/27 04:13:00;;;;;;;1.58;0.32;;;4.90;99.90;;;;;;5009390;28;20051;-79
2024/02/27 04:15:26;;;;;;;0.52;0.25;;;5.00;99.90;;;;;;5009234;28;20041;-79
2024/02/27 04:17:52;;;;;;;1.30;0.57;;;5.00;99.90;;;;;;5008147;28;20059;-78
2024/02/27 04:20:18;;;;;;;0.10;0.05;;;4.90;99.90;;;;;;5008291;28;20034;-79
2024/02/27 04:22:44;;;;;;;0.47;0.20;;;4.90;99.90;;;;;;5000135;28;20037;-79
2024/02/27 04:25:10;;;;;;;4.43;1.98;;;4.90;99.90;;;;;;5007974;28;20029;-79
2024/02/27 04:27:36;;;;;;;5.85;2.80;;;4.90;99.90;;;;;;5006862;28;20045;-78
2024/02/27 04:30:04;;;;;;;3.22;1.70;;;4.80;99.90;;;;;;5006021;28;20048;-79
2024/02/27 04:32:29;;;;;;;0.70;0.22;;;4.80;99.90;;;;;;5002063;28;20040;-79
2024/02/27 04:34:55;;;;;;;1.15;0.30;;;4.50;99.90;;;;;;5004515;28;20519;-79
2024/02/27 04:37:21;;;;;;;1.90;0.40;;;4.50;99.90;;;;;;5009208;28;20091;-79
2024/02/27 04:39:46;;;;;;;0.35;0.13;;;4.50;99.90;;;;;;5011856;28;20108;-79
2024/02/27 04:42:12;;;;;;;1.83;0.22;;;4.70;99.90;;;;;;5009761;28;20041;-79
2024/02/27 04:44:38;;;;;;;1.20;0.35;;;4.70;99.90;;;;;;5008755;28;20045;-79
2024/02/27 04:47:04;;;;;;;1.73;0.40;;;4.80;99.90;;;;;;5011442;28;20554;-79
2024/02/27 04:49:31;;;;;;;0.30;0.25;;;4.70;99.90;;;;;;5011247;28;20112;-79
2024/02/27 04:51:57;;;;;;;0.50;0.20;;;4.70;99.90;;;;;;5007887;28;20641;-78
2024/02/27 04:54:22;;;;;;;0.10;0.10;;;4.70;99.90;;;;;;5006354;28;20033;-79
2024/02/27 04:56:48;;;;;;;0.65;0.30;;;4.80;99.90;;;;;;5006059;28;20041;-78
2024/02/27 04:59:14;;;;;;;0.35;0.20;;;4.70;99.90;;;;;;5004152;28;20075;-79
2024/02/27 05:01:40;;;;;;;0.30;0.10;;;4.70;99.90;;;;;;5005428;28;20467;-79
2024/02/27 05:04:06;;;;;;;0.08;0.08;;;4.70;99.90;;;;;;5004212;28;20034;-79
2024/02/27 05:06:32;;;;;;;0.35;0.20;;;4.80;99.90;;;;;;5007071;28;20376;-79
2024/02/27 05:08:57;;;;;;;0.73;0.30;;;4.70;99.90;;;;;;5007452;28;21383;-79
2024/02/27 05:11:23;;;;;;;0.28;0.13;;;4.60;99.90;;;;;;5003594;28;20040;-79
2024/02/27 05:13:49;;;;;;;0.28;0.10;;;4.70;99.90;;;;;;5004659;28;20041;-79
2024/02/27 05:16:14;;;;;;;0.95;0.30;;;4.60;99.90;;;;;;5004191;28;20116;-78
2024/02/27 05:18:40;;;;;;;0.47;0.20;;;4.60;99.90;;;;;;5006363;28;20091;-79
2024/02/27 05:21:06;;;;;;;0.20;0.00;;;4.60;99.90;;;;;;5006038;28;20116;-78
2024/02/27 05:23:33;;;;;;;1.88;0.20;;;4.70;99.90;;;;;;5008027;28;20511;-78
2024/02/27 05:25:59;;;;;;;0.30;0.15;;;4.70;99.90;;;;;;5006140;28;20037;-79
2024/02/27 05:28:25;;;;;;;0.22;0.08;;;4.70;99.90;;;;;;5009061;28;20051;-79
2024/02/27 05:30:52;;;;;;;0.43;0.17;;;4.70;99.90;;;;;;5006217;28;20034;-79
2024/02/27 05:33:18;;;;;;;1.48;0.30;;;4.70;99.90;;;;;;5006937;28;20111;-79
2024/02/27 05:35:44;;;;;;;0.28;0.15;;;4.70;99.90;;;;;;5005271;28;20041;-79
2024/02/27 05:38:09;;;;;;;0.63;0.20;;;4.60;99.90;;;;;;5005389;28;20041;-78
2024/02/27 05:40:35;;;;;;;0.25;0.10;;;4.60;99.90;;;;;;5007509;28;20034;-79
2024/02/27 05:43:01;;;;;;;1.50;0.50;;;4.70;99.90;;;;;;5009319;28;20051;-79
2024/02/27 05:45:26;;;;;;;0.70;0.40;;;4.80;99.90;;;;;;5003978;28;21556;-78
2024/02/27 05:47:52;;;;;;;0.50;0.20;;;4.70;99.90;;;;;;5005707;28;20033;-79
2024/02/27 05:50:18;;;;;;;0.25;0.13;;;4.70;99.90;;;;;;5006560;28;20083;-79
2024/02/27 05:52:43;;;;;;;1.08;0.30;;;4.70;99.90;;;;;;5007242;28;20125;-79
2024/02/27 05:55:09;;;;;;;0.10;0.10;;;4.70;99.90;;;;;;5006210;28;20121;-79
2024/02/27 05:57:35;;;;;;;2.15;0.70;;;4.70;99.90;;;;;;5005770;28;20120;-78
2024/02/27 06:00:00;;;;;;;1.85;0.82;;;4.70;99.90;;;;;;5007247;28;20163;-79
2024/02/27 06:02:26;;;;;;;1.30;1.02;;;4.70;99.90;;;;;;5005445;28;20026;-78
2024/02/27 06:04:52;;;;;;;1.30;0.35;;;4.70;99.90;;;;;;5006633;28;20025;-79
2024/02/27 06:07:18;;;;;;;0.32;0.13;;;4.70;99.90;;;;;;5006259;28;20475;-79
2024/02/27 06:09:43;;;;;;;0.00;0.00;;;4.70;99.90;;;;;;5002497;28;20049;-79
2024/02/27 06:12:09;;;;;;;0.40;0.20;;;4.70;99.90;;;;;;5003757;28;20468;-79
2024/02/27 06:14:35;;;;;;;0.20;0.15;;;4.70;99.90;;;;;;5007153;28;20113;-79
2024/02/27 06:17:01;;;;;;;0.25;0.10;;;4.50;99.90;;;;;;5006134;28;20091;-79
2024/02/27 06:19:27;;;;;;;0.30;0.10;;;4.60;99.90;;;;;;5015376;28;20052;-78
2024/02/27 06:22:14;;;;;;;0.57;0.20;;;4.60;99.90;;;;;;5006775;28;20630;-78
2024/02/27 06:24:40;;;;;;;3.05;0.70;;;4.70;99.90;;;;;;5011389;28;20129;-77
2024/02/27 06:27:08;;;;;;;1.63;0.68;;;4.70;99.90;;;;;;5007512;28;20057;-78
2024/02/27 06:29:34;;;;;;;2.20;0.80;;;4.70;99.90;;;;;;5007670;28;20029;-77
2024/02/27 06:32:01;;;;;;;0.98;0.52;;;4.60;99.90;;;;;;5005395;28;20050;-78
2024/02/27 06:34:26;;;;;;;1.77;0.60;;;4.50;99.90;;;;;;5006910;28;20650;-78
2024/02/27 06:36:53;;;;;;;1.50;0.47;;;4.50;99.90;;;;;;5008410;28;20033;-78
2024/02/27 06:39:20;;;;;;;0.52;0.30;;;4.50;99.90;;;;;;5007854;28;20034;-78
2024/02/27 06:41:50;;;;;;;0.17;0.13;;;4.50;99.90;;;;;;5014146;28;20116;-79
2024/02/27 06:44:17;;;;;;;0.52;0.17;;;4.60;99.90;;;;;;5009962;28;20540;-78
2024/02/27 06:46:43;;;;;;;0.60;0.30;;;4.60;99.90;;;;;;5007534;28;20136;-79
2024/02/27 06:49:09;;;;;;;0.60;0.25;;;4.60;99.90;;;;;;5006614;28;20041;-79
2024/02/27 06:51:35;;;;;;;0.22;0.10;;;4.50;99.90;;;;;;5007444;28;21400;-79
2024/02/27 06:54:02;;;;;;;1.02;0.63;;;4.60;99.90;;;;;;5006848;28;20770;-79
2024/02/27 06:56:28;;;;;;;0.22;0.10;;;4.60;99.90;;;;;;5007736;28;20034;-78
2024/02/27 06:58:55;;;;;;;0.88;0.40;;;4.70;99.90;;;;;;5006443;28;21038;-79
2024/02/27 07:01:21;;;;;;;2.05;0.82;;;4.60;99.90;;;;;;5006923;28;20040;-79
2024/02/27 07:03:47;;;;;;;2.15;1.02;;;4.30;99.90;;;;;;5010793;28;20037;-79
2024/02/27 07:06:13;;;;;;;3.42;0.80;;;4.30;99.90;;;;;;5010514;28;20102;-78
2024/02/27 07:08:38;;;;;;;2.58;1.00;;;4.30;99.90;;;;;;5010172;28;20091;-78
2024/02/27 07:11:06;;;;;;;4.60;1.00;;;4.20;99.90;;;;;;5007970;28;20057;-78
2024/02/27 07:13:32;;;;;;;1.00;0.50;;;4.20;99.90;;;;;;5009702;28;21313;-78
2024/02/27 07:15:57;;;;;;;2.28;1.23;;;4.20;99.90;;;;;;5009529;28;20637;-79
2024/02/27 07:18:23;;;;;;;2.22;1.00;;;4.20;99.90;;;;;;5008230;28;20038;-78
2024/02/27 07:20:49;;;;;;;1.48;0.65;;;4.10;99.90;;;;;;5009774;28;20026;-79
2024/02/27 07:23:15;;;;;;;1.67;0.80;;;4.20;99.90;;;;;;5010057;28;20039;-78
2024/02/27 07:25:41;;;;;;;4.25;0.93;;;4.00;99.90;;;;;;5009034;28;20014;-78
2024/02/27 07:28:06;;;;;;;1.42;0.63;;;4.10;99.90;;;;;;5010052;28;20022;-78
2024/02/27 07:30:32;;;;;;;2.50;0.80;;;4.10;99.90;;;;;;5009076;28;20037;-78
2024/02/27 07:32:58;;;;;;;1.33;0.70;;;4.10;99.90;;;;;;5008348;28;20045;-79
2024/02/27 07:35:23;;;;;;;1.50;0.57;;;4.30;99.90;;;;;;5009421;28;20040;-80
2024/02/27 07:37:49;;;;;;;1.48;0.75;;;4.40;99.90;;;;;;5010134;28;21001;-82
2024/02/27 07:40:15;;;;;;;2.30;0.90;;;4.20;99.90;;;;;;5008925;28;20049;-79
2024/02/27 07:42:41;;;;;;;1.25;0.63;;;4.20;99.90;;;;;;5009375;28;20048;-79
2024/02/27 07:45:07;;;;;;;1.90;0.80;;;4.30;99.90;;;;;;5009660;28;20041;-78
2024/02/27 07:47:32;;;;;;;0.90;0.20;;;4.30;99.90;;;;;;5008140;28;20492;-77
2024/02/27 07:49:58;;;;;;;3.13;0.60;;;4.40;99.90;;;;;;5008975;28;20030;-77
2024/02/27 07:52:24;;;;;;;2.55;0.70;;;4.60;99.90;;;;;;5008765;28;20488;-76
2024/02/27 07:54:49;;;;;;;2.53;0.80;;;4.60;99.90;;;;;;5008278;28;20038;-77
2024/02/27 07:57:15;;;;;;;1.35;0.68;;;4.50;99.90;;;;;;5009542;28;20032;-78
2024/02/27 07:59:41;;;;;;;2.08;0.70;;;4.40;99.90;;;;;;5012527;28;20761;-76
2024/02/27 08:02:06;;;;;;;2.30;0.70;;;4.50;99.90;;;;;;5013580;28;20811;-76
2024/02/27 08:04:32;;;;;;;1.48;0.60;;;4.60;99.90;;;;;;5011421;28;20567;-76
2024/02/27 08:06:58;;;;;;;1.38;0.50;;;4.60;99.90;;;;;;5012367;28;20041;-76
2024/02/27 08:09:25;;;;;;;1.55;0.60;;;4.60;99.90;;;;;;5011425;28;20088;-79
2024/02/27 08:11:51;;;;;;;0.88;0.55;;;4.60;99.90;;;;;;5012771;28;20044;-79
2024/02/27 08:14:17;;;;;;;1.27;0.60;;;4.70;99.90;;;;;;5011734;28;20041;-78
2024/02/27 08:16:43;;;;;;;1.33;0.50;;;4.70;99.90;;;;;;5013542;28;20045;-73
2024/02/27 08:19:08;;;;;;;1.40;0.40;;;4.80;99.90;;;;;;5010977;28;20033;-78
2024/02/27 08:21:34;;;;;;;0.20;0.10;;;4.80;99.90;;;;;;5010911;28;20752;-77
2024/02/27 08:24:03;;;;;;;0.52;0.20;;;4.90;99.90;;;;;;5010707;28;20034;-77
2024/02/27 08:26:29;;;;;;;0.40;0.10;;;5.00;99.90;;;;;;5010890;28;20037;-78
2024/02/27 08:28:56;;;;;;;0.52;0.20;;;5.00;99.90;;;;;;5011827;28;20045;-77
2024/02/27 08:31:23;;;;;;;0.20;0.00;;;5.00;99.90;;;;;;5011454;28;20035;-79
2024/02/27 08:33:49;;;;;;;0.98;0.20;;;5.10;99.90;;;;;;5010923;28;20071;-78
2024/02/27 08:36:14;;;;;;;1.48;0.20;;;5.10;99.90;;;;;;5012001;28;20036;-79
2024/02/27 08:38:46;;;;;;;1.25;0.52;;;5.30;99.90;;;;;;5012063;28;20034;-78
2024/02/27 08:41:13;;;;;;;0.03;0.00;;;5.60;99.90;;;;;;5011099;28;20044;-77
2024/02/27 08:43:39;;;;;;;0.10;0.00;;;5.40;99.90;;;;;;5011670;28;20060;-78
2024/02/27 08:46:06;;;;;;;4.38;3.05;;;5.30;99.90;;;;;;5011596;28;20108;-78
2024/02/27 08:48:31;;;;;;;5.55;4.03;;;5.30;99.90;;;;;;5010690;28;20033;-78
2024/02/27 08:50:57;;;;;;;3.20;1.48;;;5.20;99.90;;;;;;5012483;28;20041;-78
2024/02/27 08:53:24;;;;;;;0.88;0.68;;;5.20;99.90;;;;;;5010344;28;20043;-78
2024/02/27 08:55:49;;;;;;;2.50;1.30;;;5.20;99.90;;;;;;5011491;28;20033;-78
2024/02/27 08:58:15;;;;;;;6.35;2.63;;;5.30;99.90;;;;;;5011705;28;20091;-78
2024/02/27 09:00:41;;;;;;;4.50;2.15;;;5.10;99.90;;;;;;5010680;28;20045;-78
2024/02/27 09:03:07;;;;;;;3.22;1.80;;;4.90;99.90;;;;;;5010503;28;20041;-78
2024/02/27 09:05:32;;;;;;;3.28;1.55;;;4.90;99.90;;;;;;5011706;28;20034;-78
2024/02/27 09:07:59;;;;;;;2.92;1.63;;;4.90;99.90;;;;;;5009721;28;20037;-78
2024/02/27 09:10:25;;;;;;;3.30;1.70;;;4.90;99.90;;;;;;5010843;28;20089;-78
2024/02/27 09:12:51;;;;;;;3.42;1.83;;;5.00;99.90;;;;;;5011590;28;20357;-78
2024/02/27 09:15:18;;;;;;;4.63;2.15;;;5.00;99.90;;;;;;5009802;28;20044;-78
2024/02/27 09:17:43;;;;;;;3.50;1.73;;;4.80;99.90;;;;;;5010069;28;20038;-78
2024/02/27 09:20:10;;;;;;;3.72;2.20;;;4.70;99.90;;;;;;5011732;28;20095;-78
2024/02/27 09:22:37;;;;;;;4.60;2.00;;;4.60;99.90;;;;;;5011060;28;20627;-78
2024/02/27 09:25:03;;;;;;;5.07;2.15;;;4.70;99.90;;;;;;5008945;28;20029;-79
2024/02/27 09:27:31;;;;;;;2.38;1.13;;;4.70;99.90;;;;;;5011422;28;20605;-78
2024/02/27 09:29:57;;;;;;;3.58;1.38;;;4.70;99.90;;;;;;5010040;28;20061;-78
2024/02/27 09:32:22;;;;;;;2.25;1.17;;;4.90;99.90;;;;;;5010199;28;20056;-79
2024/02/27 09:34:49;;;;;;;4.18;1.90;;;5.00;99.90;;;;;;5011435;28;20037;-79
2024/02/27 09:37:15;;;;;;;3.50;2.28;;;5.00;99.90;;;;;;5009925;28;20128;-79
2024/02/27 09:39:41;;;;;;;3.58;2.03;;;4.90;99.90;;;;;;5009284;28;20037;-78
2024/02/27 09:42:09;;;;;;;3.35;1.75;;;4.90;99.90;;;;;;5012400;28;20029;-78
2024/02/27 09:44:39;;;;;;;3.80;2.13;;;4.90;99.90;;;;;;5010861;28;20045;-78
2024/02/27 09:47:08;;;;;;;4.85;2.30;;;4.80;99.90;;;;;;5010077;28;20120;-78
2024/02/27 09:49:43;;;;;;;3.90;2.08;;;4.70;99.90;;;;;;5009893;28;20037;-79
2024/02/27 09:52:15;;;;;;;2.42;0.82;;;4.60;99.90;;;;;;5011332;28;20507;-80
2024/02/27 09:54:41;;;;;;;0.77;0.52;;;4.90;99.90;;;;;;5011263;28;20045;-80
2024/02/27 09:57:07;;;;;;;1.35;0.50;;;5.00;99.90;;;;;;5011300;28;21835;-79
2024/02/27 09:59:34;;;;;;;2.05;0.82;;;5.20;99.90;;;;;;5010377;28;20673;-79
2024/02/27 10:02:12;;;;;;;0.98;0.40;;;5.30;99.90;;;;;;5011141;28;20553;-79
2024/02/27 10:04:39;;;;;;;2.38;0.93;;;5.30;99.90;;;;;;5010599;28;20116;-78
2024/02/27 10:07:06;;;;;;;2.58;1.20;;;5.30;99.90;;;;;;5009447;28;20067;-78
2024/02/27 10:09:46;;;;;;;3.20;1.20;;;5.20;99.90;;;;;;5011386;28;20287;-80
2024/02/27 10:12:12;;;;;;;1.30;0.60;;;5.10;99.90;;;;;;5009311;28;20037;-78
2024/02/27 10:14:39;;;;;;;1.58;0.60;;;5.20;99.90;;;;;;5008823;28;20147;-77
2024/02/27 10:17:08;;;;;;;2.90;1.10;;;5.40;99.90;;;;;;5011146;28;20573;-77
2024/02/27 10:19:36;;;;;;;3.22;1.40;;;5.30;99.90;;;;;;5010552;28;20083;-77
2024/02/27 10:22:03;;;;;;;4.43;1.80;;;5.20;99.90;;;;;;5009517;28;20037;-77
2024/02/27 10:24:29;;;;;;;3.67;2.20;;;5.20;99.90;;;;;;5014297;28;20113;-77
2024/02/27 10:27:07;;;;;;;7.55;4.00;;;5.10;99.90;;;;;;5008895;28;20040;-77
2024/02/27 10:29:33;;;;;;;12.38;7.03;;;5.10;99.90;;;;;;5009029;28;20048;-77
2024/02/27 10:31:59;;;;;;;7.50;3.45;;;5.20;99.90;;;;;;5007641;28;20099;-77
2024/02/27 10:34:26;;;;;;;29.25;11.93;;;5.10;99.90;;;;;;5007015;28;20060;-77
2024/02/27 10:37:05;;;;;;;11.23;5.60;;;5.20;99.90;;;;;;5011960;28;21282;-77
2024/02/27 10:39:34;;;;;;;4.68;2.75;;;5.20;99.90;;;;;;5012603;28;20041;-77
2024/02/27 10:42:00;;;;;;;4.93;2.47;;;5.00;99.90;;;;;;5010086;28;20049;-76
2024/02/27 10:44:26;;;;;;;5.88;2.72;;;5.00;99.90;;;;;;5009992;28;20042;-77
2024/02/27 10:46:57;;;;;;;5.13;2.65;;;5.00;99.90;;;;;;5009959;28;20037;-76
2024/02/27 10:49:23;;;;;;;6.70;2.58;;;5.00;99.90;;;;;;5010333;28;20540;-77
2024/02/27 10:51:50;;;;;;;3.70;2.05;;;5.10;99.90;;;;;;5010172;28;20038;-77
2024/02/27 10:54:16;;;;;;;5.90;2.13;;;5.10;99.90;;;;;;5011533;28;20116;-77
2024/02/27 10:56:43;;;;;;;28.23;17.17;;;5.20;99.90;;;;;;5010703;28;20037;-77
2024/02/27 10:59:09;;;;;;;5.65;3.00;;;5.20;99.90;;;;;;5013490;28;20037;-77
2024/02/27 11:01:36;;;;;;;4.57;2.47;;;5.10;99.90;;;;;;5013334;28;20045;-77
2024/02/27 11:04:05;;;;;;;9.25;5.38;;;5.20;99.90;;;;;;5012613;28;20460;-77
2024/02/27 11:06:32;;;;;;;3.95;2.60;;;5.10;99.90;;;;;;5012877;28;20053;-77
2024/02/27 11:09:10;;;;;;;5.13;2.80;;;5.10;99.90;;;;;;5012561;28;20037;-80
2024/02/27 11:11:41;;;;;;;7.82;4.28;;;5.10;99.90;;;;;;5014724;28;20037;-79
2024/02/27 11:14:08;;;;;;;7.55;3.05;;;5.20;99.90;;;;;;5010124;28;20044;-79
2024/02/27 11:16:43;;;;;;;7.07;4.03;;;5.20;99.90;;;;;;4996470;28;20507;-80
2024/02/27 11:19:21;;;;;;;6.72;3.78;;;5.20;99.90;;;;;;5012889;28;20029;-76
2024/02/27 11:21:51;;;;;;;7.03;3.15;;;5.10;99.90;;;;;;5012861;28;20041;-77
2024/02/27 11:24:19;;;;;;;6.00;3.58;;;5.20;99.90;;;;;;5013555;28;20045;-77
2024/02/27 11:26:45;;;;;;;8.82;5.20;;;5.30;99.90;;;;;;5012165;28;20934;-77
2024/02/27 11:29:13;;;;;;;7.45;3.70;;;5.30;99.90;;;;;;5013081;28;20515;-76
2024/02/27 11:31:39;;;;;;;9.65;5.63;;;5.30;99.90;;;;;;5014132;28;20163;-76
2024/02/27 11:34:06;;;;;;;4.18;2.05;;;5.30;99.90;;;;;;5012359;28;20123;-77
2024/02/27 11:36:32;;;;;;;7.70;3.58;;;5.30;99.90;;;;;;5012093;28;20057;-76
2024/02/27 11:38:58;;;;;;;8.25;3.58;;;5.50;99.90;;;;;;5012741;28;20118;-76
2024/02/27 11:41:24;;;;;;;11.07;4.65;;;5.50;99.90;;;;;;5012419;28;20491;-77
2024/02/27 11:43:53;;;;;;;8.88;3.67;;;5.50;99.90;;;;;;5012131;28;20038;-76
2024/02/27 11:46:31;;;;;;;5.88;3.05;;;5.50;99.90;;;;;;5012819;28;20123;-76
2024/02/27 11:48:58;;;;;;;4.03;2.30;;;5.60;99.90;;;;;;5012766;28;20045;-76
2024/02/27 11:51:26;;;;;;;6.28;2.00;;;5.50;99.90;;;;;;5012165;28;20041;-76
2024/02/27 11:53:52;;;;;;;4.05;1.80;;;5.50;99.90;;;;;;5010924;28;20039;-76
2024/02/27 11:56:18;;;;;;;3.40;1.33;;;5.60;99.90;;;;;;5012464;28;20037;-79
2024/02/27 11:58:52;;;;;;;2.83;1.60;;;5.50;99.90;;;;;;5011780;28;20479;-76
2024/02/27 12:01:17;;;;;;;3.22;1.65;;;5.50;99.90;;;;;;5011419;28;20092;-79
2024/02/27 12:03:47;;;;;;;3.60;1.60;;;5.50;99.90;;;;;;5012781;28;20038;-79
2024/02/27 12:06:13;;;;;;;4.47;2.42;;;5.40;99.90;;;;;;5011033;28;20046;-78
2024/02/27 12:08:45;;;;;;;4.10;2.08;;;5.50;99.90;;;;;;5011348;28;20044;-78
2024/02/27 12:11:11;;;;;;;5.47;2.65;;;5.50;99.90;;;;;;5013741;28;20091;-79
2024/02/27 12:13:37;;;;;;;4.47;1.75;;;5.70;99.90;;;;;;5012732;28;20471;-78
2024/02/27 12:16:03;;;;;;;9.32;5.05;;;5.70;99.90;;;;;;5011869;28;20034;-79
2024/02/27 12:18:29;;;;;;;8.05;2.80;;;5.50;99.90;;;;;;5010974;28;20114;-79
2024/02/27 12:20:54;;;;;;;6.57;2.28;;;5.40;99.90;;;;;;5012958;28;20576;-78
2024/02/27 12:23:21;;;;;;;6.78;3.30;;;5.40;99.90;;;;;;5011986;28;21373;-78
2024/02/27 12:25:47;;;;;;;7.13;3.55;;;5.40;99.90;;;;;;5011392;28;20125;-78
2024/02/27 12:28:17;;;;;;;8.75;4.25;;;5.40;99.90;;;;;;5011893;28;20053;-79
2024/02/27 12:30:49;;;;;;;6.32;3.45;;;5.40;99.90;;;;;;5010930;28;21088;-78
2024/02/27 12:33:16;;;;;;;5.18;2.42;;;5.40;99.90;;;;;;5011447;28;20055;-78
2024/02/27 12:35:43;;;;;;;5.18;3.10;;;5.40;99.90;;;;;;5008952;28;20119;-78
2024/02/27 12:38:09;;;;;;;4.50;2.20;;;5.40;99.90;;;;;;5011520;28;20041;-78
2024/02/27 12:40:36;;;;;;;4.13;2.20;;;5.50;99.90;;;;;;5009922;28;20029;-78
2024/02/27 12:43:02;;;;;;;4.47;2.00;;;5.50;99.90;;;;;;5012628;28;20037;-79
2024/02/27 12:45:30;;;;;;;4.88;3.17;;;5.50;99.90;;;;;;5011237;28;20038;-78
2024/02/27 12:47:56;;;;;;;5.93;3.40;;;5.40;99.90;;;;;;5011465;28;20052;-78
2024/02/27 12:50:27;;;;;;;6.35;4.03;;;5.30;99.90;;;;;;5013202;28;20029;-79
2024/02/27 12:52:56;;;;;;;6.38;3.85;;;5.30;99.90;;;;;;5012935;28;20029;-78
2024/02/27 12:55:22;;;;;;;7.75;3.80;;;5.20;99.90;;;;;;5010380;28;20057;-78